createdAt,value
2022-10-19T00:00:50.215Z,9.10
2022-10-19T00:03:20.697Z,9.00
2022-10-19T00:05:49.864Z,9.00
2022-10-19T00:10:13.167Z,9.00
2022-10-19T00:12:39.936Z,9.00
2022-10-19T00:15:06.931Z,8.90
2022-10-19T00:17:34.536Z,8.90
2022-10-19T00:20:01.486Z,8.90
2022-10-19T00:22:28.037Z,8.90
2022-10-19T00:24:56.229Z,8.80
2022-10-19T00:27:22.766Z,8.80
2022-10-19T00:29:49.284Z,8.80
2022-10-19T00:32:15.809Z,8.70
2022-10-19T00:34:42.564Z,8.60
2022-10-19T00:37:09.090Z,8.70
2022-10-19T00:39:35.619Z,8.60
2022-10-19T00:42:02.143Z,8.60
2022-10-19T00:44:28.623Z,8.60
2022-10-19T00:46:58.095Z,8.60
2022-10-19T00:49:26.764Z,8.50
2022-10-19T00:51:55.120Z,8.50
2022-10-19T00:54:22.078Z,8.40
2022-10-19T00:56:49.997Z,8.40
2022-10-19T00:59:19.028Z,8.40
2022-10-19T01:01:45.907Z,8.30
2022-10-19T01:04:13.087Z,8.30
2022-10-19T01:06:40.739Z,8.30
2022-10-19T01:09:07.834Z,8.30
2022-10-19T01:11:49.059Z,8.30
2022-10-19T01:14:21.628Z,8.30
2022-10-19T01:17:00.243Z,8.20
2022-10-19T01:19:45.927Z,8.20
2022-10-19T01:22:18.368Z,8.10
2022-10-19T01:24:51.826Z,8.10
2022-10-19T01:27:18.593Z,8.10
2022-10-19T01:30:00.314Z,8.00
2022-10-19T01:32:37.931Z,8.00
2022-10-19T01:35:04.417Z,7.90
2022-10-19T01:37:34.900Z,7.90
2022-10-19T01:40:09.811Z,7.90
2022-10-19T01:42:42.508Z,7.80
2022-10-19T01:45:09.334Z,7.80
2022-10-19T01:47:40.130Z,7.70
2022-10-19T01:50:11.578Z,7.70
2022-10-19T01:52:39.694Z,7.70
2022-10-19T01:55:08.129Z,7.70
2022-10-19T01:57:39.791Z,7.60
2022-10-19T02:00:07.734Z,7.60
2022-10-19T02:02:36.418Z,7.50
2022-10-19T02:05:04.398Z,7.50
2022-10-19T02:07:31.466Z,7.50
2022-10-19T02:09:58.178Z,7.50
2022-10-19T02:12:26.255Z,7.50
2022-10-19T02:14:54.890Z,7.40
2022-10-19T02:17:24.611Z,7.40
2022-10-19T02:19:52.110Z,7.40
2022-10-19T02:22:18.724Z,7.50
2022-10-19T02:24:45.264Z,7.30
2022-10-19T02:27:12.410Z,7.30
2022-10-19T02:29:39.698Z,7.30
2022-10-19T02:32:06.682Z,7.30
2022-10-19T02:34:33.458Z,7.20
2022-10-19T02:36:59.978Z,7.20
2022-10-19T02:39:26.726Z,7.20
2022-10-19T02:42:01.051Z,7.10
2022-10-19T02:44:31.205Z,7.10
2022-10-19T02:47:03.006Z,7.00
2022-10-19T02:49:29.996Z,7.10
2022-10-19T02:52:00.932Z,7.00
2022-10-19T02:54:28.072Z,7.10
2022-10-19T02:56:54.847Z,7.00
2022-10-19T02:59:21.698Z,7.00
2022-10-19T03:01:48.222Z,7.00
2022-10-19T03:04:14.791Z,7.00
2022-10-19T03:06:41.422Z,7.00
2022-10-19T03:09:08.276Z,7.00
2022-10-19T03:11:34.984Z,6.90
2022-10-19T03:14:01.582Z,6.90
2022-10-19T03:16:28.162Z,6.90
2022-10-19T03:18:55.010Z,6.90
2022-10-19T03:21:21.762Z,6.90
2022-10-19T03:23:48.428Z,6.90
2022-10-19T03:26:16.419Z,6.80
2022-10-19T03:28:43.521Z,6.80
2022-10-19T03:31:10.097Z,6.80
2022-10-19T03:33:36.593Z,6.80
2022-10-19T03:36:12.571Z,6.80
2022-10-19T03:38:39.084Z,6.80
2022-10-19T03:41:06.226Z,6.70
2022-10-19T03:43:32.754Z,6.70
2022-10-19T03:45:59.266Z,6.70
2022-10-19T03:48:25.770Z,6.60
2022-10-19T03:51:00.386Z,6.60
2022-10-19T03:53:27.074Z,6.60
2022-10-19T03:56:00.166Z,6.60
2022-10-19T03:58:26.670Z,6.60
2022-10-19T04:00:53.219Z,6.60
2022-10-19T04:03:19.969Z,6.50
2022-10-19T04:05:46.463Z,6.50
2022-10-19T04:08:12.951Z,6.50
2022-10-19T04:10:39.484Z,6.50
2022-10-19T04:13:05.968Z,6.50
2022-10-19T04:15:32.477Z,6.50
2022-10-19T04:17:59.002Z,6.40
2022-10-19T04:20:25.671Z,6.40
2022-10-19T04:22:52.612Z,6.40
2022-10-19T04:25:19.127Z,6.40
2022-10-19T04:27:45.675Z,6.40
2022-10-19T04:30:12.235Z,6.40
2022-10-19T04:32:38.923Z,6.40
2022-10-19T04:35:06.573Z,6.40
2022-10-19T04:37:33.301Z,6.30
2022-10-19T04:39:59.936Z,6.30
2022-10-19T04:42:26.620Z,6.20
2022-10-19T04:44:53.294Z,6.20
2022-10-19T04:47:19.967Z,6.20
2022-10-19T04:49:46.454Z,6.20
2022-10-19T04:52:13.138Z,6.20
2022-10-19T04:54:39.643Z,6.10
2022-10-19T04:57:06.175Z,6.10
2022-10-19T04:59:32.695Z,6.10
2022-10-19T05:01:59.445Z,6.10
2022-10-19T05:04:26.131Z,6.10
2022-10-19T05:06:52.725Z,6.10
2022-10-19T05:09:19.255Z,6.10
2022-10-19T05:11:45.983Z,6.00
2022-10-19T05:14:12.590Z,6.00
2022-10-19T05:16:39.154Z,6.00
2022-10-19T05:19:05.855Z,6.00
2022-10-19T05:21:32.708Z,6.00
2022-10-19T05:23:59.532Z,6.00
2022-10-19T05:26:26.987Z,6.00
2022-10-19T05:28:57.816Z,6.00
2022-10-19T05:31:28.546Z,5.90
2022-10-19T05:33:58.508Z,5.90
2022-10-19T05:36:29.410Z,5.90
2022-10-19T05:38:56.642Z,5.90
2022-10-19T05:41:24.028Z,5.90
2022-10-19T05:43:54.502Z,5.90
2022-10-19T05:46:21.106Z,5.80
2022-10-19T05:48:47.714Z,5.80
2022-10-19T05:51:18.290Z,5.80
2022-10-19T05:53:44.868Z,5.80
2022-10-19T05:56:13.657Z,5.80
2022-10-19T05:58:40.426Z,5.80
2022-10-19T06:01:08.347Z,5.80
2022-10-19T06:03:34.997Z,5.80
2022-10-19T06:06:05.560Z,5.80
2022-10-19T06:08:32.501Z,5.80
2022-10-19T06:11:06.149Z,5.70
2022-10-19T06:13:32.949Z,5.70
2022-10-19T06:15:59.646Z,5.70
2022-10-19T06:18:26.198Z,5.70
2022-10-19T06:20:52.925Z,5.80
2022-10-19T06:23:19.431Z,5.70
2022-10-19T06:25:45.968Z,5.70
2022-10-19T06:28:12.475Z,5.70
2022-10-19T06:30:42.068Z,5.70
2022-10-19T06:33:08.990Z,5.70
2022-10-19T06:35:35.795Z,5.70
2022-10-19T06:38:02.365Z,5.70
2022-10-19T06:40:28.989Z,5.70
2022-10-19T06:42:56.212Z,5.70
2022-10-19T06:45:22.718Z,5.70
2022-10-19T06:47:49.285Z,5.70
2022-10-19T06:50:15.835Z,5.70
2022-10-19T06:52:42.440Z,5.70
2022-10-19T06:55:09.115Z,5.70
2022-10-19T06:57:35.879Z,5.80
2022-10-19T07:00:02.955Z,5.70
2022-10-19T07:02:29.442Z,5.70
2022-10-19T07:04:55.988Z,5.80
2022-10-19T07:07:22.499Z,5.80
2022-10-19T07:09:49.012Z,5.90
2022-10-19T07:12:15.499Z,5.90
2022-10-19T07:14:41.985Z,6.00
2022-10-19T07:17:10.482Z,6.00
2022-10-19T07:19:37.397Z,6.00
2022-10-19T07:22:04.146Z,6.10
2022-10-19T07:24:30.683Z,6.10
2022-10-19T07:26:57.192Z,6.20
2022-10-19T07:29:23.698Z,6.20
2022-10-19T07:31:50.449Z,6.30
2022-10-19T07:34:17.101Z,6.40
2022-10-19T07:36:45.240Z,6.40
2022-10-19T07:39:12.470Z,6.50
2022-10-19T07:41:39.132Z,6.60
2022-10-19T07:44:05.896Z,6.60
2022-10-19T07:46:33.723Z,6.80
2022-10-19T07:49:00.604Z,6.80
2022-10-19T07:53:53.734Z,7.00
2022-10-19T07:56:21.685Z,7.00
2022-10-19T07:58:49.375Z,7.20
2022-10-19T08:01:17.602Z,7.20
2022-10-19T08:06:31.581Z,7.50
2022-10-19T08:08:58.217Z,7.60
2022-10-19T08:11:26.356Z,7.60
2022-10-19T08:13:53.282Z,7.70
2022-10-19T08:16:21.657Z,7.70
2022-10-19T08:18:48.307Z,7.90
2022-10-19T08:21:14.924Z,8.00
2022-10-19T08:23:41.466Z,8.10
2022-10-19T08:26:08.146Z,8.20
2022-10-19T08:28:34.678Z,8.30
2022-10-19T08:31:09.112Z,8.40
2022-10-19T08:33:35.596Z,8.60
2022-10-19T08:36:04.533Z,8.80
2022-10-19T08:38:31.124Z,8.90
2022-10-19T08:40:58.614Z,9.20
2022-10-19T08:43:31.190Z,9.30
2022-10-19T08:46:18.196Z,9.50
2022-10-19T08:48:45.112Z,9.70
2022-10-19T08:51:12.572Z,9.80
2022-10-19T08:53:53.373Z,9.80
2022-10-19T08:56:55.395Z,10.00
2022-10-19T08:59:30.548Z,10.10
2022-10-19T09:02:02.591Z,10.20
2022-10-19T09:04:32.631Z,10.30
2022-10-19T09:06:59.148Z,10.40
2022-10-19T09:09:26.910Z,10.50
2022-10-19T09:11:55.647Z,10.60
2022-10-19T09:14:32.437Z,10.70
2022-10-19T09:17:01.469Z,10.80
2022-10-19T09:19:30.722Z,10.90
2022-10-19T09:21:58.569Z,11.00
2022-10-19T09:24:30.083Z,11.10
2022-10-19T09:27:00.138Z,11.20
2022-10-19T09:29:29.812Z,11.30
2022-10-19T09:34:26.738Z,11.50
2022-10-19T09:36:56.938Z,11.60
2022-10-19T09:39:27.063Z,11.70
2022-10-19T09:41:57.095Z,11.80
2022-10-19T09:44:24.255Z,12.00
2022-10-19T09:46:53.813Z,12.10
2022-10-19T09:49:38.456Z,12.20
2022-10-19T09:52:04.947Z,12.40
2022-10-19T09:54:33.858Z,12.50
2022-10-19T09:57:00.527Z,12.60
2022-10-19T09:59:29.146Z,12.70
2022-10-19T10:02:15.932Z,12.80
2022-10-19T10:04:45.332Z,12.90
2022-10-19T10:07:17.915Z,13.00
2022-10-19T10:09:44.864Z,13.00
2022-10-19T10:12:13.636Z,13.10
2022-10-19T10:14:40.479Z,13.10
2022-10-19T10:17:06.945Z,13.20
2022-10-19T10:19:35.974Z,13.20
2022-10-19T10:22:03.351Z,13.30
2022-10-19T10:24:31.018Z,13.30
2022-10-19T10:26:58.826Z,13.30
2022-10-19T10:29:29.263Z,13.40
2022-10-19T10:31:59.505Z,13.40
2022-10-19T10:35:00.994Z,13.40
2022-10-19T10:37:30.013Z,13.50
2022-10-19T10:40:00.431Z,13.50
2022-10-19T10:42:42.731Z,13.60
2022-10-19T10:45:24.503Z,13.60
2022-10-19T10:47:52.114Z,13.70
2022-10-19T10:50:21.540Z,13.70
2022-10-19T10:52:58.839Z,13.70
2022-10-19T10:55:26.756Z,13.80
2022-10-19T10:58:04.969Z,13.80
2022-10-19T11:00:32.680Z,13.70
2022-10-19T11:03:04.794Z,13.70
2022-10-19T11:05:32.610Z,13.80
2022-10-19T11:08:05.299Z,13.90
2022-10-19T11:10:34.275Z,13.90
2022-10-19T11:13:12.800Z,13.90
2022-10-19T11:15:44.652Z,13.90
2022-10-19T11:18:17.714Z,14.00
2022-10-19T11:20:53.196Z,13.90
2022-10-19T11:23:36.073Z,13.90
2022-10-19T11:26:10.607Z,13.90
2022-10-19T11:28:37.099Z,14.00
2022-10-19T11:31:14.006Z,14.00
2022-10-19T11:33:44.397Z,14.10
2022-10-19T11:36:31.378Z,14.00
2022-10-19T11:38:57.870Z,14.00
2022-10-19T11:41:36.463Z,14.00
2022-10-19T11:44:21.751Z,14.10
2022-10-19T11:47:08.971Z,14.10
2022-10-19T11:49:54.404Z,14.10
2022-10-19T11:52:31.483Z,14.30
2022-10-19T11:55:04.536Z,14.20
2022-10-19T11:57:34.917Z,14.20
2022-10-19T12:00:14.251Z,14.30
2022-10-19T12:02:42.247Z,14.30
2022-10-19T12:05:17.490Z,14.40
2022-10-19T12:08:03.795Z,14.30
2022-10-19T12:10:50.587Z,14.30
2022-10-19T12:13:19.495Z,14.40
2022-10-19T12:15:53.919Z,14.40
2022-10-19T12:18:36.565Z,14.50
2022-10-19T12:21:08.042Z,14.50
2022-10-19T12:23:36.316Z,14.70
2022-10-19T12:26:04.295Z,14.70
2022-10-19T12:28:32.837Z,14.80
2022-10-19T12:31:01.423Z,14.80
2022-10-19T12:33:36.938Z,14.70
2022-10-19T12:36:18.723Z,14.80
2022-10-19T12:39:04.141Z,14.80
2022-10-19T12:41:33.693Z,14.80
2022-10-19T12:44:19.010Z,14.80
2022-10-19T12:46:58.768Z,14.90
2022-10-19T12:49:29.958Z,15.00
2022-10-19T12:51:57.657Z,15.10
2022-10-19T12:54:25.083Z,15.10
2022-10-19T12:56:53.617Z,15.30
2022-10-19T12:59:27.687Z,15.60
2022-10-19T13:01:54.577Z,15.70
2022-10-19T13:04:22.908Z,16.00
2022-10-19T13:07:00.165Z,16.20
2022-10-19T13:09:41.721Z,16.80
2022-10-19T13:12:17.750Z,17.30
2022-10-19T13:14:54.428Z,17.90
2022-10-19T13:17:51.008Z,18.50
2022-10-19T13:20:17.547Z,19.10
2022-10-19T13:22:51.051Z,19.50
2022-10-19T13:25:27.927Z,20.30
2022-10-19T13:28:01.318Z,20.80
2022-10-19T13:30:38.311Z,20.80
2022-10-19T13:33:29.871Z,21.40
2022-10-19T13:35:59.601Z,21.40
2022-10-19T13:38:30.002Z,21.90
2022-10-19T13:40:59.457Z,21.70
2022-10-19T13:43:28.063Z,22.20
2022-10-19T13:45:57.624Z,22.20
2022-10-19T13:48:27.579Z,22.20
2022-10-19T13:51:02.723Z,22.50
2022-10-19T13:53:35.943Z,22.70
2022-10-19T13:56:02.408Z,22.70
2022-10-19T13:58:34.658Z,22.00
2022-10-19T14:01:04.258Z,22.40
2022-10-19T14:03:30.845Z,23.30
2022-10-19T14:06:09.692Z,22.90
2022-10-19T14:08:54.954Z,22.10
2022-10-19T14:11:26.708Z,20.30
2022-10-19T14:14:11.591Z,20.00
2022-10-19T14:16:47.394Z,19.80
2022-10-19T14:19:14.546Z,19.40
2022-10-19T14:21:41.195Z,18.70
2022-10-19T14:24:21.342Z,18.40
2022-10-19T14:26:48.044Z,18.10
2022-10-19T14:29:14.750Z,18.00
2022-10-19T14:31:41.625Z,17.70
2022-10-19T14:34:09.188Z,17.70
2022-10-19T14:36:48.770Z,17.60
2022-10-19T14:39:29.641Z,17.50
2022-10-19T14:41:56.648Z,17.70
2022-10-19T14:44:38.506Z,17.90
2022-10-19T14:47:18.963Z,18.20
2022-10-19T14:49:45.660Z,18.70
2022-10-19T14:52:16.147Z,19.80
2022-10-19T14:54:45.005Z,19.90
2022-10-19T14:57:13.988Z,20.60
2022-10-19T14:59:46.058Z,20.50
2022-10-19T15:02:18.626Z,20.90
2022-10-19T15:04:45.320Z,21.10
2022-10-19T15:07:21.304Z,21.30
2022-10-19T15:09:51.780Z,21.10
2022-10-19T15:12:21.086Z,21.60
2022-10-19T15:14:48.110Z,21.80
2022-10-19T15:17:24.068Z,21.00
2022-10-19T15:19:51.536Z,19.70
2022-10-19T15:22:19.807Z,19.00
2022-10-19T15:25:04.862Z,18.50
2022-10-19T15:27:35.810Z,18.00
2022-10-19T15:30:17.712Z,17.70
2022-10-19T15:32:46.163Z,17.60
2022-10-19T15:35:23.100Z,17.40
2022-10-19T15:37:50.096Z,17.20
2022-10-19T15:40:26.048Z,17.10
2022-10-19T15:42:52.814Z,16.70
2022-10-19T15:45:31.324Z,16.60
2022-10-19T15:48:24.487Z,16.50
2022-10-19T15:50:52.108Z,16.30
2022-10-19T15:53:19.239Z,16.00
2022-10-19T15:55:45.747Z,15.80
2022-10-19T15:58:13.110Z,15.70
2022-10-19T16:00:40.182Z,15.50
2022-10-19T16:03:06.812Z,15.40
2022-10-19T16:05:34.980Z,15.40
2022-10-19T16:08:01.512Z,15.30
2022-10-19T16:10:28.140Z,15.20
2022-10-19T16:12:54.663Z,15.10
2022-10-19T16:15:22.398Z,15.00
2022-10-19T16:17:50.403Z,14.90
2022-10-19T16:20:17.236Z,14.90
2022-10-19T16:22:44.351Z,14.80
2022-10-19T16:25:11.209Z,14.60
2022-10-19T16:27:37.928Z,14.60
2022-10-19T16:30:05.117Z,14.50
2022-10-19T16:32:32.049Z,14.50
2022-10-19T16:34:58.590Z,14.40
2022-10-19T16:37:25.295Z,14.30
2022-10-19T16:39:51.979Z,14.20
2022-10-19T16:42:18.512Z,14.20
2022-10-19T16:44:45.212Z,14.10
2022-10-19T16:47:11.688Z,14.10
2022-10-19T16:49:38.200Z,14.00
2022-10-19T16:52:06.024Z,13.90
2022-10-19T16:54:32.827Z,13.90
2022-10-19T16:56:59.353Z,13.80
2022-10-19T16:59:26.046Z,13.70
2022-10-19T17:01:53.605Z,13.70
2022-10-19T17:04:20.201Z,13.70
2022-10-19T17:06:46.711Z,13.60
2022-10-19T17:11:59.807Z,13.40
2022-10-19T17:14:26.312Z,13.40
2022-10-19T17:16:52.829Z,13.40
2022-10-19T17:19:19.316Z,13.30
2022-10-19T17:21:45.795Z,13.20
2022-10-19T17:24:18.388Z,13.30
2022-10-19T17:26:48.152Z,13.20
2022-10-19T17:29:14.681Z,13.20
2022-10-19T17:31:41.741Z,13.20
2022-10-19T17:34:08.685Z,13.20
2022-10-19T17:39:08.710Z,13.10
2022-10-19T17:41:35.649Z,13.00
2022-10-19T17:44:03.211Z,13.00
2022-10-19T17:46:30.625Z,12.90
2022-10-19T17:48:57.701Z,12.90
2022-10-19T17:51:31.889Z,12.90
2022-10-19T17:53:59.882Z,12.90
2022-10-19T17:56:26.851Z,12.80
2022-10-19T17:58:53.524Z,12.80
2022-10-19T18:01:20.852Z,12.80
2022-10-19T18:03:47.687Z,12.80
2022-10-19T18:06:17.930Z,12.70
2022-10-19T18:08:46.190Z,12.60
2022-10-19T18:11:14.061Z,12.70
2022-10-19T18:13:41.009Z,12.70
2022-10-19T18:16:15.394Z,12.70
2022-10-19T18:18:42.676Z,12.60
2022-10-19T18:21:10.388Z,12.60
2022-10-19T18:23:37.635Z,12.60
2022-10-19T18:26:09.253Z,12.50
2022-10-19T18:28:36.155Z,12.50
2022-10-19T18:31:05.813Z,12.50
2022-10-19T18:33:32.651Z,12.50
2022-10-19T18:35:59.240Z,12.40
2022-10-19T18:38:25.963Z,12.40
2022-10-19T18:40:52.522Z,12.40
2022-10-19T18:43:19.354Z,12.40
2022-10-19T18:45:55.708Z,12.30
2022-10-19T18:48:22.651Z,12.30
2022-10-19T18:50:49.607Z,12.30
2022-10-19T18:53:16.477Z,12.20
2022-10-19T18:55:42.988Z,12.20
2022-10-19T18:58:09.909Z,12.20
2022-10-19T19:00:36.703Z,12.10
2022-10-19T19:03:03.215Z,12.10
2022-10-19T19:05:31.703Z,12.10
2022-10-19T19:07:58.413Z,12.10
2022-10-19T19:10:24.934Z,12.00
2022-10-19T19:12:51.492Z,12.00
2022-10-19T19:15:18.431Z,12.00
2022-10-19T19:17:45.118Z,12.00
2022-10-19T19:20:11.817Z,11.90
2022-10-19T19:22:38.581Z,11.90
2022-10-19T19:25:05.355Z,11.90
2022-10-19T19:27:32.204Z,11.80
2022-10-19T19:30:00.683Z,11.80
2022-10-19T19:32:27.536Z,11.90
2022-10-19T19:34:55.275Z,11.80
2022-10-19T19:37:21.851Z,11.80
2022-10-19T19:39:48.583Z,11.80
2022-10-19T19:42:16.256Z,11.80
2022-10-19T19:44:42.946Z,11.60
2022-10-19T19:47:09.779Z,11.60
2022-10-19T19:49:36.467Z,11.70
2022-10-19T19:52:03.027Z,11.60
2022-10-19T19:54:29.539Z,11.50
2022-10-19T19:56:56.080Z,11.50
2022-10-19T19:59:22.646Z,11.60
2022-10-19T20:01:49.197Z,11.50
2022-10-19T20:04:16.053Z,11.50
2022-10-19T20:06:44.435Z,11.50
2022-10-19T20:09:11.177Z,11.40
2022-10-19T20:11:42.143Z,11.50
2022-10-19T20:14:09.485Z,11.50
2022-10-19T20:16:36.883Z,11.40
2022-10-19T20:19:08.415Z,11.30
2022-10-19T20:21:34.985Z,11.40
2022-10-19T20:24:01.767Z,11.40
2022-10-19T20:26:28.506Z,11.40
2022-10-19T20:28:55.025Z,11.30
2022-10-19T20:31:22.459Z,11.30
2022-10-19T20:33:49.060Z,11.20
2022-10-19T20:36:17.152Z,11.20
2022-10-19T20:38:56.983Z,11.20
2022-10-19T20:41:24.717Z,11.10
2022-10-19T20:43:51.370Z,11.10
2022-10-19T20:46:18.968Z,11.10
2022-10-19T20:48:45.476Z,11.00
2022-10-19T20:51:12.259Z,11.10
2022-10-19T20:53:38.847Z,11.00
2022-10-19T20:56:06.403Z,11.00
2022-10-19T20:58:33.619Z,11.00
2022-10-19T21:01:07.923Z,11.00
2022-10-19T21:03:34.924Z,11.00
2022-10-19T21:06:02.156Z,11.00
2022-10-19T21:08:28.800Z,10.90
2022-10-19T21:10:55.379Z,10.90
2022-10-19T21:13:21.904Z,10.90
2022-10-19T21:15:48.458Z,10.80
2022-10-19T21:18:14.966Z,10.80
2022-10-19T21:20:41.809Z,10.80
2022-10-19T21:23:11.250Z,10.80
2022-10-19T21:25:37.766Z,10.80
2022-10-19T21:28:04.389Z,10.80
2022-10-19T21:30:31.088Z,10.70
2022-10-19T21:32:58.348Z,10.70
2022-10-19T21:35:24.926Z,10.70
2022-10-19T21:37:51.815Z,10.70
2022-10-19T21:40:18.326Z,10.70
2022-10-19T21:42:45.330Z,10.60
2022-10-19T21:45:29.068Z,10.60
2022-10-19T21:47:56.202Z,10.60
2022-10-19T21:50:22.719Z,10.60
2022-10-19T21:52:49.386Z,10.60
2022-10-19T21:55:16.035Z,10.60
2022-10-19T21:57:42.710Z,10.50
2022-10-19T22:00:09.575Z,10.50
2022-10-19T22:02:36.276Z,10.50
2022-10-19T22:05:02.995Z,10.50
2022-10-19T22:07:29.572Z,10.50
2022-10-19T22:09:56.579Z,10.40
2022-10-19T22:12:23.095Z,10.40
2022-10-19T22:14:49.614Z,10.30
2022-10-19T22:17:16.135Z,10.30
2022-10-19T22:19:42.615Z,10.30
2022-10-19T22:22:09.298Z,10.30
2022-10-19T22:24:36.007Z,10.40
2022-10-19T22:27:02.711Z,10.30
2022-10-19T22:29:29.218Z,10.30
2022-10-19T22:31:55.827Z,10.30
2022-10-19T22:34:22.606Z,10.30
2022-10-19T22:36:49.414Z,10.30
2022-10-19T22:39:16.468Z,10.30
2022-10-19T22:42:05.117Z,10.20
2022-10-19T22:44:32.135Z,10.10
2022-10-19T22:46:58.678Z,10.20
2022-10-19T22:49:25.220Z,10.20
2022-10-19T22:51:51.903Z,10.20
2022-10-19T22:54:18.587Z,10.10
2022-10-19T22:56:45.132Z,10.20
2022-10-19T22:59:11.633Z,10.20
2022-10-19T23:01:38.244Z,10.10
2022-10-19T23:04:04.815Z,10.10
2022-10-19T23:06:31.363Z,10.00
2022-10-19T23:08:57.923Z,10.10
2022-10-19T23:11:24.515Z,10.10
2022-10-19T23:13:51.063Z,10.00
2022-10-19T23:16:17.646Z,10.00
2022-10-19T23:18:44.193Z,10.00
2022-10-19T23:21:12.069Z,10.00
2022-10-19T23:23:39.446Z,10.00
2022-10-19T23:26:06.277Z,10.00
2022-10-19T23:28:33.606Z,10.00
2022-10-19T23:31:04.546Z,10.00
2022-10-19T23:33:31.381Z,10.00
2022-10-19T23:36:08.786Z,10.00
2022-10-19T23:38:35.724Z,10.00
2022-10-19T23:41:02.480Z,10.00
2022-10-19T23:43:29.243Z,10.00
2022-10-19T23:45:56.029Z,10.00
2022-10-19T23:48:22.742Z,9.90
2022-10-19T23:50:59.527Z,9.90
2022-10-19T23:53:27.092Z,10.00
2022-10-19T23:56:00.367Z,9.90
2022-10-19T23:58:27.071Z,9.90
